Akron, Colorado
Current Conditions -  °F | °C
As of 8:53 AM on Friday 31 Oct 2014 (Local Time) from KAKO Reporting Station
Few Clouds Few Clouds  
Wind Chill: -6°   Ceiling: Unl
Heat Index:   Visibility: 10mi
Dew Point: -2°   Wind: 16mph
Humidity: 88%   Direction: 150°SSE
Pressure: 30.4"   Gusts: NA
Location:  40.16°N, 103.21°W
Report Text: KAKO 311453Z AUTO 15014KT 10SM FEW005 00/M02 A3040 RMK AO2 SLP307 T00001017 53001
Loading
Personal Weather Stations






























Interactive Weather Map
Tropical Storm Tracking
New forecast layout! Learn more

10-Day Weather Forecast

Advertisements
Track Severe Weather on mobile